sensor_id;sensor_type;location;lat;lon;timestamp;temperature;humidity
38118;DHT22;23928;47.562;7.508;2023-01-04T00:00:44;3.00;99.90
38118;DHT22;23928;47.562;7.508;2023-01-04T00:03:11;3.00;99.90
38118;DHT22;23928;47.562;7.508;2023-01-04T00:05:36;3.00;99.90
38118;DHT22;23928;47.562;7.508;2023-01-04T00:08:02;3.00;99.90
38118;DHT22;23928;47.562;7.508;2023-01-04T00:10:28;2.90;99.90
38118;DHT22;23928;47.562;7.508;2023-01-04T00:12:53;3.00;99.90
38118;DHT22;23928;47.562;7.508;2023-01-04T00:15:19;3.00;99.90
38118;DHT22;23928;47.562;7.508;2023-01-04T00:17:44;3.00;99.90
38118;DHT22;23928;47.562;7.508;2023-01-04T00:20:10;3.20;99.90
38118;DHT22;23928;47.562;7.508;2023-01-04T00:22:36;3.20;99.90
38118;DHT22;23928;47.562;7.508;2023-01-04T00:25:02;3.30;99.90
38118;DHT22;23928;47.562;7.508;2023-01-04T00:27:27;3.30;99.90
38118;DHT22;23928;47.562;7.508;2023-01-04T00:29:53;3.50;99.90
38118;DHT22;23928;47.562;7.508;2023-01-04T00:32:18;3.40;99.90
38118;DHT22;23928;47.562;7.508;2023-01-04T00:34:44;3.30;99.90
38118;DHT22;23928;47.562;7.508;2023-01-04T00:37:10;3.30;99.90
38118;DHT22;23928;47.562;7.508;2023-01-04T00:39:35;3.40;99.90
38118;DHT22;23928;47.562;7.508;2023-01-04T00:42:01;3.30;99.90
38118;DHT22;23928;47.562;7.508;2023-01-04T00:44:33;3.30;99.90
38118;DHT22;23928;47.562;7.508;2023-01-04T00:47:01;3.30;99.90
38118;DHT22;23928;47.562;7.508;2023-01-04T00:49:27;3.50;99.90
38118;DHT22;23928;47.562;7.508;2023-01-04T00:51:53;3.60;99.90
38118;DHT22;23928;47.562;7.508;2023-01-04T00:54:20;3.50;99.90
38118;DHT22;23928;47.562;7.508;2023-01-04T00:56:46;3.50;99.90
38118;DHT22;23928;47.562;7.508;2023-01-04T00:59:13;3.40;99.90
38118;DHT22;23928;47.562;7.508;2023-01-04T01:01:40;3.30;99.90
38118;DHT22;23928;47.562;7.508;2023-01-04T01:04:05;3.40;99.90
38118;DHT22;23928;47.562;7.508;2023-01-04T01:06:32;3.30;99.90
38118;DHT22;23928;47.562;7.508;2023-01-04T01:08:59;3.50;99.90
38118;DHT22;23928;47.562;7.508;2023-01-04T01:11:25;3.40;99.90
38118;DHT22;23928;47.562;7.508;2023-01-04T01:13:51;3.50;99.90
38118;DHT22;23928;47.562;7.508;2023-01-04T01:16:19;3.50;99.90
38118;DHT22;23928;47.562;7.508;2023-01-04T01:18:45;3.60;99.90
38118;DHT22;23928;47.562;7.508;2023-01-04T01:21:14;3.60;99.90
38118;DHT22;23928;47.562;7.508;2023-01-04T01:23:40;3.50;99.90
38118;DHT22;23928;47.562;7.508;2023-01-04T01:26:07;3.50;99.90
38118;DHT22;23928;47.562;7.508;2023-01-04T01:28:35;3.50;99.90
38118;DHT22;23928;47.562;7.508;2023-01-04T01:31:14;3.50;99.90
38118;DHT22;23928;47.562;7.508;2023-01-04T01:33:41;3.40;99.90
38118;DHT22;23928;47.562;7.508;2023-01-04T01:36:08;3.50;99.90
38118;DHT22;23928;47.562;7.508;2023-01-04T01:38:35;3.30;99.90
38118;DHT22;23928;47.562;7.508;2023-01-04T01:41:01;3.20;99.90
38118;DHT22;23928;47.562;7.508;2023-01-04T01:43:48;3.30;99.90
38118;DHT22;23928;47.562;7.508;2023-01-04T01:46:15;3.20;99.90
38118;DHT22;23928;47.562;7.508;2023-01-04T01:48:43;3.30;99.90
38118;DHT22;23928;47.562;7.508;2023-01-04T01:51:09;3.30;99.90
38118;DHT22;23928;47.562;7.508;2023-01-04T01:53:37;3.50;99.90
38118;DHT22;23928;47.562;7.508;2023-01-04T01:56:05;3.50;99.90
38118;DHT22;23928;47.562;7.508;2023-01-04T01:58:42;3.40;99.90
38118;DHT22;23928;47.562;7.508;2023-01-04T02:01:09;3.30;99.90
38118;DHT22;23928;47.562;7.508;2023-01-04T02:03:38;3.30;99.90
38118;DHT22;23928;47.562;7.508;2023-01-04T02:06:06;3.30;99.90
38118;DHT22;23928;47.562;7.508;2023-01-04T02:08:33;3.40;99.90
38118;DHT22;23928;47.562;7.508;2023-01-04T02:11:00;3.40;99.90
38118;DHT22;23928;47.562;7.508;2023-01-04T02:13:29;3.40;99.90
38118;DHT22;23928;47.562;7.508;2023-01-04T02:18:57;3.40;99.90
38118;DHT22;23928;47.562;7.508;2023-01-04T02:30:07;3.20;99.90
38118;DHT22;23928;47.562;7.508;2023-01-04T02:33:04;3.30;99.90
38118;DHT22;23928;47.562;7.508;2023-01-04T02:35:42;3.40;99.90
38118;DHT22;23928;47.562;7.508;2023-01-04T02:41:20;3.30;99.90
38118;DHT22;23928;47.562;7.508;2023-01-04T02:46:44;3.30;99.90
38118;DHT22;23928;47.562;7.508;2023-01-04T02:49:11;3.50;99.90
38118;DHT22;23928;47.562;7.508;2023-01-04T02:51:55;3.50;99.90
38118;DHT22;23928;47.562;7.508;2023-01-04T02:54:26;3.60;99.90
38118;DHT22;23928;47.562;7.508;2023-01-04T03:00:06;3.40;99.90
38118;DHT22;23928;47.562;7.508;2023-01-04T03:05:45;3.50;99.90
38118;DHT22;23928;47.562;7.508;2023-01-04T03:11:17;3.30;99.90
38118;DHT22;23928;47.562;7.508;2023-01-04T03:16:29;3.20;99.90
38118;DHT22;23928;47.562;7.508;2023-01-04T03:18:57;3.20;99.90
38118;DHT22;23928;47.562;7.508;2023-01-04T03:21:28;3.20;99.90
38118;DHT22;23928;47.562;7.508;2023-01-04T03:23:57;3.10;99.90
38118;DHT22;23928;47.562;7.508;2023-01-04T03:26:47;2.90;99.90
38118;DHT22;23928;47.562;7.508;2023-01-04T03:30:16;3.00;99.90
38118;DHT22;23928;47.562;7.508;2023-01-04T03:33:05;2.80;99.90
38118;DHT22;23928;47.562;7.508;2023-01-04T03:36:11;2.80;99.90
38118;DHT22;23928;47.562;7.508;2023-01-04T03:38:47;2.90;99.90
38118;DHT22;23928;47.562;7.508;2023-01-04T03:41:52;2.80;99.90
38118;DHT22;23928;47.562;7.508;2023-01-04T03:47:36;2.90;99.90
38118;DHT22;23928;47.562;7.508;2023-01-04T03:50:27;2.70;99.90
38118;DHT22;23928;47.562;7.508;2023-01-04T03:52:54;2.70;99.90
38118;DHT22;23928;47.562;7.508;2023-01-04T03:55:21;2.80;99.90
38118;DHT22;23928;47.562;7.508;2023-01-04T03:57:48;2.90;99.90
38118;DHT22;23928;47.562;7.508;2023-01-04T04:00:16;2.90;99.90
38118;DHT22;23928;47.562;7.508;2023-01-04T04:02:45;3.00;99.90
38118;DHT22;23928;47.562;7.508;2023-01-04T04:05:17;2.80;99.90
38118;DHT22;23928;47.562;7.508;2023-01-04T04:08:02;3.00;99.90
38118;DHT22;23928;47.562;7.508;2023-01-04T04:10:46;3.00;99.90
38118;DHT22;23928;47.562;7.508;2023-01-04T04:13:12;3.10;99.90
38118;DHT22;23928;47.562;7.508;2023-01-04T04:15:37;3.10;99.90
38118;DHT22;23928;47.562;7.508;2023-01-04T04:18:04;3.10;99.90
38118;DHT22;23928;47.562;7.508;2023-01-04T04:20:30;3.00;99.90
38118;DHT22;23928;47.562;7.508;2023-01-04T04:22:55;3.10;99.90
38118;DHT22;23928;47.562;7.508;2023-01-04T04:25:21;3.00;99.90
38118;DHT22;23928;47.562;7.508;2023-01-04T04:27:46;3.20;99.90
38118;DHT22;23928;47.562;7.508;2023-01-04T04:30:12;3.20;99.90
38118;DHT22;23928;47.562;7.508;2023-01-04T04:32:38;3.30;99.90
38118;DHT22;23928;47.562;7.508;2023-01-04T04:35:03;3.30;99.90
38118;DHT22;23928;47.562;7.508;2023-01-04T04:37:29;3.30;99.90
38118;DHT22;23928;47.562;7.508;2023-01-04T04:39:57;3.30;99.90
38118;DHT22;23928;47.562;7.508;2023-01-04T04:42:22;3.30;99.90
38118;DHT22;23928;47.562;7.508;2023-01-04T04:44:48;3.50;99.90
38118;DHT22;23928;47.562;7.508;2023-01-04T04:47:14;3.50;99.90
38118;DHT22;23928;47.562;7.508;2023-01-04T04:49:39;3.40;99.90
38118;DHT22;23928;47.562;7.508;2023-01-04T04:52:05;3.30;99.90
38118;DHT22;23928;47.562;7.508;2023-01-04T04:54:30;3.30;99.90
38118;DHT22;23928;47.562;7.508;2023-01-04T04:56:56;3.40;99.90
38118;DHT22;23928;47.562;7.508;2023-01-04T04:59:21;3.40;99.90
38118;DHT22;23928;47.562;7.508;2023-01-04T05:01:47;3.50;99.90
38118;DHT22;23928;47.562;7.508;2023-01-04T05:04:13;3.50;99.90
38118;DHT22;23928;47.562;7.508;2023-01-04T05:06:42;3.60;99.90
38118;DHT22;23928;47.562;7.508;2023-01-04T05:09:07;3.60;99.90
38118;DHT22;23928;47.562;7.508;2023-01-04T05:11:34;3.70;99.90
38118;DHT22;23928;47.562;7.508;2023-01-04T05:14:18;3.70;99.90
38118;DHT22;23928;47.562;7.508;2023-01-04T05:16:44;3.70;99.90
38118;DHT22;23928;47.562;7.508;2023-01-04T05:19:10;3.80;99.90
38118;DHT22;23928;47.562;7.508;2023-01-04T05:21:35;3.70;99.90
38118;DHT22;23928;47.562;7.508;2023-01-04T05:24:01;3.60;99.90
38118;DHT22;23928;47.562;7.508;2023-01-04T05:26:26;3.60;99.90
38118;DHT22;23928;47.562;7.508;2023-01-04T05:28:52;3.60;99.90
38118;DHT22;23928;47.562;7.508;2023-01-04T05:31:17;3.60;99.90
38118;DHT22;23928;47.562;7.508;2023-01-04T05:33:43;3.50;99.90
38118;DHT22;23928;47.562;7.508;2023-01-04T05:36:09;3.60;99.90
38118;DHT22;23928;47.562;7.508;2023-01-04T05:38:34;3.60;99.90
38118;DHT22;23928;47.562;7.508;2023-01-04T05:41:00;3.60;99.90
38118;DHT22;23928;47.562;7.508;2023-01-04T05:43:26;3.70;99.90
38118;DHT22;23928;47.562;7.508;2023-01-04T05:45:53;3.80;99.90
38118;DHT22;23928;47.562;7.508;2023-01-04T05:48:21;3.80;99.90
38118;DHT22;23928;47.562;7.508;2023-01-04T05:50:47;3.90;99.90
38118;DHT22;23928;47.562;7.508;2023-01-04T05:53:14;3.90;99.90
38118;DHT22;23928;47.562;7.508;2023-01-04T05:55:42;3.90;99.90
38118;DHT22;23928;47.562;7.508;2023-01-04T05:58:08;3.90;99.90
38118;DHT22;23928;47.562;7.508;2023-01-04T06:00:33;3.90;99.90
38118;DHT22;23928;47.562;7.508;2023-01-04T06:02:59;4.00;99.90
38118;DHT22;23928;47.562;7.508;2023-01-04T06:05:25;3.90;99.90
38118;DHT22;23928;47.562;7.508;2023-01-04T06:07:51;3.80;99.90
38118;DHT22;23928;47.562;7.508;2023-01-04T06:10:17;3.90;99.90
38118;DHT22;23928;47.562;7.508;2023-01-04T06:12:43;4.00;99.90
38118;DHT22;23928;47.562;7.508;2023-01-04T06:15:10;4.10;99.90
38118;DHT22;23928;47.562;7.508;2023-01-04T06:17:37;4.10;99.90
38118;DHT22;23928;47.562;7.508;2023-01-04T06:20:04;4.10;99.90
38118;DHT22;23928;47.562;7.508;2023-01-04T06:22:30;4.20;99.90
38118;DHT22;23928;47.562;7.508;2023-01-04T06:24:57;4.20;99.90
38118;DHT22;23928;47.562;7.508;2023-01-04T06:27:23;4.30;99.90
38118;DHT22;23928;47.562;7.508;2023-01-04T06:29:48;4.30;99.90
38118;DHT22;23928;47.562;7.508;2023-01-04T06:32:14;4.30;99.90
38118;DHT22;23928;47.562;7.508;2023-01-04T06:34:40;4.40;99.90
38118;DHT22;23928;47.562;7.508;2023-01-04T06:37:06;4.30;99.90
38118;DHT22;23928;47.562;7.508;2023-01-04T06:39:31;4.30;99.90
38118;DHT22;23928;47.562;7.508;2023-01-04T06:41:57;4.20;99.90
38118;DHT22;23928;47.562;7.508;2023-01-04T06:44:23;4.10;99.90
38118;DHT22;23928;47.562;7.508;2023-01-04T06:46:48;4.00;99.90
38118;DHT22;23928;47.562;7.508;2023-01-04T06:49:14;4.10;99.90
38118;DHT22;23928;47.562;7.508;2023-01-04T06:51:40;4.10;99.90
38118;DHT22;23928;47.562;7.508;2023-01-04T06:54:05;4.20;99.90
38118;DHT22;23928;47.562;7.508;2023-01-04T06:56:31;4.10;99.90
38118;DHT22;23928;47.562;7.508;2023-01-04T06:58:58;4.20;99.90
38118;DHT22;23928;47.562;7.508;2023-01-04T07:01:24;4.30;99.90
38118;DHT22;23928;47.562;7.508;2023-01-04T07:03:50;4.20;99.90
38118;DHT22;23928;47.562;7.508;2023-01-04T07:06:15;4.30;99.90
38118;DHT22;23928;47.562;7.508;2023-01-04T07:08:41;4.30;99.90
38118;DHT22;23928;47.562;7.508;2023-01-04T07:11:06;4.30;99.90
38118;DHT22;23928;47.562;7.508;2023-01-04T07:13:32;4.40;99.90
38118;DHT22;23928;47.562;7.508;2023-01-04T07:15:58;4.40;99.90
38118;DHT22;23928;47.562;7.508;2023-01-04T07:18:23;4.40;99.90
38118;DHT22;23928;47.562;7.508;2023-01-04T07:20:49;4.50;99.90
38118;DHT22;23928;47.562;7.508;2023-01-04T07:23:14;4.60;99.90
38118;DHT22;23928;47.562;7.508;2023-01-04T07:25:40;4.60;99.90
38118;DHT22;23928;47.562;7.508;2023-01-04T07:28:05;4.70;99.90
38118;DHT22;23928;47.562;7.508;2023-01-04T07:30:31;4.70;99.90
38118;DHT22;23928;47.562;7.508;2023-01-04T07:32:57;4.70;99.90
38118;DHT22;23928;47.562;7.508;2023-01-04T07:35:23;4.50;99.90
38118;DHT22;23928;47.562;7.508;2023-01-04T07:37:49;4.70;99.90
38118;DHT22;23928;47.562;7.508;2023-01-04T07:40:15;4.70;99.90
38118;DHT22;23928;47.562;7.508;2023-01-04T07:42:40;4.80;99.90
38118;DHT22;23928;47.562;7.508;2023-01-04T07:45:06;4.90;99.90
38118;DHT22;23928;47.562;7.508;2023-01-04T07:47:32;5.00;99.90
38118;DHT22;23928;47.562;7.508;2023-01-04T07:49:58;5.00;99.90
38118;DHT22;23928;47.562;7.508;2023-01-04T07:52:25;4.90;99.90
38118;DHT22;23928;47.562;7.508;2023-01-04T07:54:50;5.10;99.90
38118;DHT22;23928;47.562;7.508;2023-01-04T07:57:16;5.20;99.90
38118;DHT22;23928;47.562;7.508;2023-01-04T07:59:42;5.40;99.90
38118;DHT22;23928;47.562;7.508;2023-01-04T08:02:11;5.50;99.90
38118;DHT22;23928;47.562;7.508;2023-01-04T08:04:37;5.50;99.90
38118;DHT22;23928;47.562;7.508;2023-01-04T08:07:03;5.60;99.90
38118;DHT22;23928;47.562;7.508;2023-01-04T08:09:29;5.60;99.90
38118;DHT22;23928;47.562;7.508;2023-01-04T08:11:54;5.60;99.90
38118;DHT22;23928;47.562;7.508;2023-01-04T08:14:20;5.40;99.90
38118;DHT22;23928;47.562;7.508;2023-01-04T08:16:45;5.50;99.90
38118;DHT22;23928;47.562;7.508;2023-01-04T08:19:14;5.60;99.90
38118;DHT22;23928;47.562;7.508;2023-01-04T08:21:40;5.50;99.90
38118;DHT22;23928;47.562;7.508;2023-01-04T08:24:08;5.50;99.90
38118;DHT22;23928;47.562;7.508;2023-01-04T08:26:33;5.40;99.90
38118;DHT22;23928;47.562;7.508;2023-01-04T08:28:59;5.40;99.90
38118;DHT22;23928;47.562;7.508;2023-01-04T08:31:27;5.40;99.90
38118;DHT22;23928;47.562;7.508;2023-01-04T08:33:54;5.50;99.90
38118;DHT22;23928;47.562;7.508;2023-01-04T08:36:26;5.50;99.90
38118;DHT22;23928;47.562;7.508;2023-01-04T08:38:54;5.40;99.90
38118;DHT22;23928;47.562;7.508;2023-01-04T08:41:20;5.40;99.90
38118;DHT22;23928;47.562;7.508;2023-01-04T08:43:46;5.50;99.90
38118;DHT22;23928;47.562;7.508;2023-01-04T08:46:13;5.50;99.90
38118;DHT22;23928;47.562;7.508;2023-01-04T08:48:39;5.50;99.90
38118;DHT22;23928;47.562;7.508;2023-01-04T08:51:07;5.50;99.90
38118;DHT22;23928;47.562;7.508;2023-01-04T08:53:33;5.50;99.90
38118;DHT22;23928;47.562;7.508;2023-01-04T08:55:59;5.50;99.90
38118;DHT22;23928;47.562;7.508;2023-01-04T08:58:26;5.60;99.90
38118;DHT22;23928;47.562;7.508;2023-01-04T09:00:52;5.60;99.90
38118;DHT22;23928;47.562;7.508;2023-01-04T09:03:18;5.60;99.90
38118;DHT22;23928;47.562;7.508;2023-01-04T09:05:43;5.70;99.90
38118;DHT22;23928;47.562;7.508;2023-01-04T09:08:10;5.70;99.90
38118;DHT22;23928;47.562;7.508;2023-01-04T09:10:38;5.70;99.90
38118;DHT22;23928;47.562;7.508;2023-01-04T09:13:05;5.90;99.90
38118;DHT22;23928;47.562;7.508;2023-01-04T09:15:31;5.80;99.90
38118;DHT22;23928;47.562;7.508;2023-01-04T09:17:57;5.80;99.90
38118;DHT22;23928;47.562;7.508;2023-01-04T09:20:22;5.90;99.90
38118;DHT22;23928;47.562;7.508;2023-01-04T09:22:48;5.90;99.90
38118;DHT22;23928;47.562;7.508;2023-01-04T09:25:14;5.90;99.90
38118;DHT22;23928;47.562;7.508;2023-01-04T09:27:39;6.00;99.90
38118;DHT22;23928;47.562;7.508;2023-01-04T09:30:06;6.00;99.90
38118;DHT22;23928;47.562;7.508;2023-01-04T09:32:31;5.90;99.90
38118;DHT22;23928;47.562;7.508;2023-01-04T09:34:57;5.90;99.90
38118;DHT22;23928;47.562;7.508;2023-01-04T09:37:23;6.00;99.90
38118;DHT22;23928;47.562;7.508;2023-01-04T09:39:48;6.10;99.90
38118;DHT22;23928;47.562;7.508;2023-01-04T09:44:51;6.10;99.90
38118;DHT22;23928;47.562;7.508;2023-01-04T09:55:04;6.20;99.90
38118;DHT22;23928;47.562;7.508;2023-01-04T09:57:34;6.30;99.90
38118;DHT22;23928;47.562;7.508;2023-01-04T10:00:19;6.40;99.90
38118;DHT22;23928;47.562;7.508;2023-01-04T10:02:52;6.50;99.90
38118;DHT22;23928;47.562;7.508;2023-01-04T10:05:22;6.40;99.90
38118;DHT22;23928;47.562;7.508;2023-01-04T10:07:50;6.50;99.90
38118;DHT22;23928;47.562;7.508;2023-01-04T10:10:19;6.50;99.90
38118;DHT22;23928;47.562;7.508;2023-01-04T10:13:06;6.70;99.90
38118;DHT22;23928;47.562;7.508;2023-01-04T10:23:51;6.90;99.90
38118;DHT22;23928;47.562;7.508;2023-01-04T10:26:27;6.90;99.90
38118;DHT22;23928;47.562;7.508;2023-01-04T10:29:18;7.00;99.90
38118;DHT22;23928;47.562;7.508;2023-01-04T10:34:43;7.00;99.90
38118;DHT22;23928;47.562;7.508;2023-01-04T10:39:41;6.90;99.90
38118;DHT22;23928;47.562;7.508;2023-01-04T10:42:32;7.00;99.90
38118;DHT22;23928;47.562;7.508;2023-01-04T10:48:29;7.20;99.90
38118;DHT22;23928;47.562;7.508;2023-01-04T10:51:02;7.20;99.90
38118;DHT22;23928;47.562;7.508;2023-01-04T10:58:54;7.40;99.90
38118;DHT22;23928;47.562;7.508;2023-01-04T11:01:27;7.40;99.90
38118;DHT22;23928;47.562;7.508;2023-01-04T11:09:08;7.40;99.90
38118;DHT22;23928;47.562;7.508;2023-01-04T11:11:41;7.60;99.90
38118;DHT22;23928;47.562;7.508;2023-01-04T11:14:07;7.70;99.90
38118;DHT22;23928;47.562;7.508;2023-01-04T11:16:35;7.60;99.90
38118;DHT22;23928;47.562;7.508;2023-01-04T11:19:01;7.60;99.90
38118;DHT22;23928;47.562;7.508;2023-01-04T11:21:33;7.50;99.90
38118;DHT22;23928;47.562;7.508;2023-01-04T11:24:04;7.60;99.90
38118;DHT22;23928;47.562;7.508;2023-01-04T11:26:34;7.70;99.90
38118;DHT22;23928;47.562;7.508;2023-01-04T11:31:59;7.60;99.90
38118;DHT22;23928;47.562;7.508;2023-01-04T11:34:59;7.50;99.90
38118;DHT22;23928;47.562;7.508;2023-01-04T11:43:09;7.70;99.90
38118;DHT22;23928;47.562;7.508;2023-01-04T11:45:35;7.70;99.90
38118;DHT22;23928;47.562;7.508;2023-01-04T11:48:00;7.50;99.90
38118;DHT22;23928;47.562;7.508;2023-01-04T11:50:45;7.70;99.90
38118;DHT22;23928;47.562;7.508;2023-01-04T11:53:32;7.70;99.90
38118;DHT22;23928;47.562;7.508;2023-01-04T11:58:36;8.00;99.90
38118;DHT22;23928;47.562;7.508;2023-01-04T12:01:02;8.00;99.90
38118;DHT22;23928;47.562;7.508;2023-01-04T12:03:36;8.00;99.90
38118;DHT22;23928;47.562;7.508;2023-01-04T12:06:20;8.00;99.90
38118;DHT22;23928;47.562;7.508;2023-01-04T12:08:47;8.00;99.90
38118;DHT22;23928;47.562;7.508;2023-01-04T12:11:34;8.10;99.90
38118;DHT22;23928;47.562;7.508;2023-01-04T12:14:08;7.90;99.90
38118;DHT22;23928;47.562;7.508;2023-01-04T12:19:13;7.90;99.90
38118;DHT22;23928;47.562;7.508;2023-01-04T12:21:42;7.90;99.90
38118;DHT22;23928;47.562;7.508;2023-01-04T12:24:08;7.90;99.90
38118;DHT22;23928;47.562;7.508;2023-01-04T12:26:40;8.00;99.90
38118;DHT22;23928;47.562;7.508;2023-01-04T12:32:37;8.00;99.90
38118;DHT22;23928;47.562;7.508;2023-01-04T12:34:38;7.90;99.90
38118;DHT22;23928;47.562;7.508;2023-01-04T12:37:04;7.90;99.90
38118;DHT22;23928;47.562;7.508;2023-01-04T12:39:42;8.00;99.90
38118;DHT22;23928;47.562;7.508;2023-01-04T12:42:09;8.00;99.90
38118;DHT22;23928;47.562;7.508;2023-01-04T12:47:02;8.00;99.90
38118;DHT22;23928;47.562;7.508;2023-01-04T13:02:38;8.10;99.90
38118;DHT22;23928;47.562;7.508;2023-01-04T13:10:39;8.40;99.90
38118;DHT22;23928;47.562;7.508;2023-01-04T13:13:42;8.30;99.90
38118;DHT22;23928;47.562;7.508;2023-01-04T13:19:02;8.40;99.90
38118;DHT22;23928;47.562;7.508;2023-01-04T13:21:44;8.40;99.90
38118;DHT22;23928;47.562;7.508;2023-01-04T13:26:50;8.30;99.90
38118;DHT22;23928;47.562;7.508;2023-01-04T13:34:18;8.40;99.90
38118;DHT22;23928;47.562;7.508;2023-01-04T13:37:03;8.40;99.90
38118;DHT22;23928;47.562;7.508;2023-01-04T13:39:30;8.30;99.90
38118;DHT22;23928;47.562;7.508;2023-01-04T13:41:56;8.30;99.90
38118;DHT22;23928;47.562;7.508;2023-01-04T13:47:07;8.30;99.90
38118;DHT22;23928;47.562;7.508;2023-01-04T13:49:36;8.40;99.90
38118;DHT22;23928;47.562;7.508;2023-01-04T13:52:24;8.50;99.90
38118;DHT22;23928;47.562;7.508;2023-01-04T13:54:50;8.40;99.90
38118;DHT22;23928;47.562;7.508;2023-01-04T13:57:18;8.40;99.90
38118;DHT22;23928;47.562;7.508;2023-01-04T13:59:50;8.40;99.90
38118;DHT22;23928;47.562;7.508;2023-01-04T14:02:19;8.40;99.90
38118;DHT22;23928;47.562;7.508;2023-01-04T14:04:47;8.40;99.90
38118;DHT22;23928;47.562;7.508;2023-01-04T14:07:23;8.40;99.90
38118;DHT22;23928;47.562;7.508;2023-01-04T14:09:52;8.50;99.90
38118;DHT22;23928;47.562;7.508;2023-01-04T14:12:23;8.50;99.90
38118;DHT22;23928;47.562;7.508;2023-01-04T14:14:55;8.50;99.90
38118;DHT22;23928;47.562;7.508;2023-01-04T14:17:49;8.50;99.90
38118;DHT22;23928;47.562;7.508;2023-01-04T14:30:45;8.60;99.90
38118;DHT22;23928;47.562;7.508;2023-01-04T14:33:19;8.50;99.90
38118;DHT22;23928;47.562;7.508;2023-01-04T14:38:26;8.40;99.90
38118;DHT22;23928;47.562;7.508;2023-01-04T14:40:52;8.50;99.90
38118;DHT22;23928;47.562;7.508;2023-01-04T14:43:44;8.60;99.90
38118;DHT22;23928;47.562;7.508;2023-01-04T14:46:10;8.50;99.90
38118;DHT22;23928;47.562;7.508;2023-01-04T14:48:36;8.50;99.90
38118;DHT22;23928;47.562;7.508;2023-01-04T14:51:03;8.60;99.90
38118;DHT22;23928;47.562;7.508;2023-01-04T14:53:29;8.50;99.90
38118;DHT22;23928;47.562;7.508;2023-01-04T14:55:54;8.60;99.90
38118;DHT22;23928;47.562;7.508;2023-01-04T14:58:21;8.50;99.90
38118;DHT22;23928;47.562;7.508;2023-01-04T15:00:47;8.40;99.90
38118;DHT22;23928;47.562;7.508;2023-01-04T15:03:12;8.60;99.90
38118;DHT22;23928;47.562;7.508;2023-01-04T15:05:39;8.40;99.90
38118;DHT22;23928;47.562;7.508;2023-01-04T15:08:05;8.40;99.90
38118;DHT22;23928;47.562;7.508;2023-01-04T15:10:33;8.40;99.90
38118;DHT22;23928;47.562;7.508;2023-01-04T15:12:59;8.40;99.90
38118;DHT22;23928;47.562;7.508;2023-01-04T15:15:25;8.30;99.90
38118;DHT22;23928;47.562;7.508;2023-01-04T15:17:51;8.50;99.90
38118;DHT22;23928;47.562;7.508;2023-01-04T15:20:17;8.50;99.90
38118;DHT22;23928;47.562;7.508;2023-01-04T15:22:43;8.50;99.90
38118;DHT22;23928;47.562;7.508;2023-01-04T15:25:09;8.60;99.90
38118;DHT22;23928;47.562;7.508;2023-01-04T15:27:35;8.50;99.90
38118;DHT22;23928;47.562;7.508;2023-01-04T15:30:00;8.70;99.90
38118;DHT22;23928;47.562;7.508;2023-01-04T15:32:26;8.50;99.90
38118;DHT22;23928;47.562;7.508;2023-01-04T15:34:52;8.50;99.90
38118;DHT22;23928;47.562;7.508;2023-01-04T15:37:17;8.50;99.90
38118;DHT22;23928;47.562;7.508;2023-01-04T15:39:45;8.50;99.90
38118;DHT22;23928;47.562;7.508;2023-01-04T15:42:11;8.50;99.90
38118;DHT22;23928;47.562;7.508;2023-01-04T15:44:56;8.50;99.90
38118;DHT22;23928;47.562;7.508;2023-01-04T15:47:21;8.40;99.90
38118;DHT22;23928;47.562;7.508;2023-01-04T15:49:47;8.40;99.90
38118;DHT22;23928;47.562;7.508;2023-01-04T15:52:12;8.50;99.90
38118;DHT22;23928;47.562;7.508;2023-01-04T15:54:38;8.50;99.90
38118;DHT22;23928;47.562;7.508;2023-01-04T15:57:04;8.40;99.90
38118;DHT22;23928;47.562;7.508;2023-01-04T15:59:29;8.50;99.90
38118;DHT22;23928;47.562;7.508;2023-01-04T16:01:55;8.50;99.90
38118;DHT22;23928;47.562;7.508;2023-01-04T16:04:21;8.50;99.90
38118;DHT22;23928;47.562;7.508;2023-01-04T16:06:46;8.40;99.90
38118;DHT22;23928;47.562;7.508;2023-01-04T16:09:12;8.50;99.90
38118;DHT22;23928;47.562;7.508;2023-01-04T16:11:38;8.50;99.90
38118;DHT22;23928;47.562;7.508;2023-01-04T16:14:23;8.40;99.90
38118;DHT22;23928;47.562;7.508;2023-01-04T16:16:49;8.50;99.90
38118;DHT22;23928;47.562;7.508;2023-01-04T16:19:14;8.40;99.90
38118;DHT22;23928;47.562;7.508;2023-01-04T16:21:40;8.50;99.90
38118;DHT22;23928;47.562;7.508;2023-01-04T16:24:08;8.40;99.90
38118;DHT22;23928;47.562;7.508;2023-01-04T16:26:34;8.40;99.90
38118;DHT22;23928;47.562;7.508;2023-01-04T16:28:59;8.40;99.90
38118;DHT22;23928;47.562;7.508;2023-01-04T16:31:35;8.40;99.90
38118;DHT22;23928;47.562;7.508;2023-01-04T16:34:01;8.40;99.90
38118;DHT22;23928;47.562;7.508;2023-01-04T16:36:26;8.50;99.90
38118;DHT22;23928;47.562;7.508;2023-01-04T16:38:52;8.40;99.90
38118;DHT22;23928;47.562;7.508;2023-01-04T16:41:19;8.30;99.90
38118;DHT22;23928;47.562;7.508;2023-01-04T16:48:40;8.50;99.90
38118;DHT22;23928;47.562;7.508;2023-01-04T16:51:05;8.50;99.90
38118;DHT22;23928;47.562;7.508;2023-01-04T16:53:31;8.60;99.90
38118;DHT22;23928;47.562;7.508;2023-01-04T16:55:57;8.40;99.90
38118;DHT22;23928;47.562;7.508;2023-01-04T16:58:28;8.60;99.90
38118;DHT22;23928;47.562;7.508;2023-01-04T17:00:54;8.40;99.90
38118;DHT22;23928;47.562;7.508;2023-01-04T17:03:19;8.40;99.90
38118;DHT22;23928;47.562;7.508;2023-01-04T17:05:45;8.20;99.90
38118;DHT22;23928;47.562;7.508;2023-01-04T17:08:11;8.10;99.90
38118;DHT22;23928;47.562;7.508;2023-01-04T17:10:36;8.00;99.90
38118;DHT22;23928;47.562;7.508;2023-01-04T17:13:02;8.10;99.90
38118;DHT22;23928;47.562;7.508;2023-01-04T17:15:27;7.90;99.90
38118;DHT22;23928;47.562;7.508;2023-01-04T17:17:53;8.00;99.90
38118;DHT22;23928;47.562;7.508;2023-01-04T17:20:18;8.00;99.90
38118;DHT22;23928;47.562;7.508;2023-01-04T17:22:44;7.90;99.90
38118;DHT22;23928;47.562;7.508;2023-01-04T17:25:10;7.80;99.90
38118;DHT22;23928;47.562;7.508;2023-01-04T17:27:35;7.70;99.90
38118;DHT22;23928;47.562;7.508;2023-01-04T17:30:01;7.60;99.90
38118;DHT22;23928;47.562;7.508;2023-01-04T17:32:27;7.70;99.90
38118;DHT22;23928;47.562;7.508;2023-01-04T17:34:53;7.70;99.90
38118;DHT22;23928;47.562;7.508;2023-01-04T17:37:18;7.80;99.90
38118;DHT22;23928;47.562;7.508;2023-01-04T17:39:44;7.90;99.90
38118;DHT22;23928;47.562;7.508;2023-01-04T17:42:09;7.70;99.90
38118;DHT22;23928;47.562;7.508;2023-01-04T17:44:35;7.70;99.90
38118;DHT22;23928;47.562;7.508;2023-01-04T17:47:00;8.00;99.90
38118;DHT22;23928;47.562;7.508;2023-01-04T17:49:26;7.90;99.90
38118;DHT22;23928;47.562;7.508;2023-01-04T17:51:52;7.80;99.90
38118;DHT22;23928;47.562;7.508;2023-01-04T17:54:18;8.00;99.90
38118;DHT22;23928;47.562;7.508;2023-01-04T17:56:45;8.00;99.90
38118;DHT22;23928;47.562;7.508;2023-01-04T17:59:11;8.10;99.90
38118;DHT22;23928;47.562;7.508;2023-01-04T18:01:36;8.10;99.90
38118;DHT22;23928;47.562;7.508;2023-01-04T18:04:02;7.90;99.90
38118;DHT22;23928;47.562;7.508;2023-01-04T18:06:31;8.00;99.90
38118;DHT22;23928;47.562;7.508;2023-01-04T18:09:00;7.90;99.90
38118;DHT22;23928;47.562;7.508;2023-01-04T18:11:26;7.90;99.90
38118;DHT22;23928;47.562;7.508;2023-01-04T18:13:52;7.90;99.90